sensor_id;sensor_type;location;lat;lon;timestamp;P1;durP1;ratioP1;P2;durP2;ratioP2
20482;SDS011;10400;53.198;6.592;2023-04-20T00:02:05;6.43;;;2.15;;
20482;SDS011;10400;53.198;6.592;2023-04-20T00:04:31;5.13;;;2.05;;
20482;SDS011;10400;53.198;6.592;2023-04-20T00:06:57;6.57;;;2.10;;
20482;SDS011;10400;53.198;6.592;2023-04-20T00:09:23;2.47;;;1.75;;
20482;SDS011;10400;53.198;6.592;2023-04-20T00:11:50;4.18;;;2.00;;
20482;SDS011;10400;53.198;6.592;2023-04-20T00:14:16;3.38;;;1.60;;
20482;SDS011;10400;53.198;6.592;2023-04-20T00:16:41;4.15;;;2.00;;
20482;SDS011;10400;53.198;6.592;2023-04-20T00:19:07;6.18;;;2.13;;
20482;SDS011;10400;53.198;6.592;2023-04-20T00:21:33;4.22;;;1.75;;
20482;SDS011;10400;53.198;6.592;2023-04-20T00:23:59;4.07;;;1.85;;
20482;SDS011;10400;53.198;6.592;2023-04-20T00:26:25;5.13;;;1.83;;
20482;SDS011;10400;53.198;6.592;2023-04-20T00:28:50;4.53;;;1.98;;
20482;SDS011;10400;53.198;6.592;2023-04-20T00:31:17;4.63;;;1.90;;
20482;SDS011;10400;53.198;6.592;2023-04-20T00:33:43;3.20;;;1.67;;
20482;SDS011;10400;53.198;6.592;2023-04-20T00:36:08;6.60;;;2.05;;
20482;SDS011;10400;53.198;6.592;2023-04-20T00:38:34;3.42;;;1.60;;
20482;SDS011;10400;53.198;6.592;2023-04-20T00:41:00;3.42;;;1.85;;
20482;SDS011;10400;53.198;6.592;2023-04-20T00:43:26;2.95;;;1.88;;
20482;SDS011;10400;53.198;6.592;2023-04-20T00:45:51;4.75;;;1.58;;
20482;SDS011;10400;53.198;6.592;2023-04-20T00:48:17;5.80;;;1.70;;
20482;SDS011;10400;53.198;6.592;2023-04-20T00:50:44;7.80;;;2.00;;
20482;SDS011;10400;53.198;6.592;2023-04-20T00:53:10;5.80;;;1.70;;
20482;SDS011;10400;53.198;6.592;2023-04-20T00:55:37;5.18;;;2.10;;
20482;SDS011;10400;53.198;6.592;2023-04-20T00:58:03;3.90;;;1.92;;
20482;SDS011;10400;53.198;6.592;2023-04-20T01:00:30;4.95;;;1.60;;
20482;SDS011;10400;53.198;6.592;2023-04-20T01:02:57;5.47;;;1.73;;
20482;SDS011;10400;53.198;6.592;2023-04-20T01:05:22;3.22;;;1.88;;
20482;SDS011;10400;53.198;6.592;2023-04-20T01:07:48;7.18;;;1.77;;
20482;SDS011;10400;53.198;6.592;2023-04-20T01:10:14;3.70;;;1.70;;
20482;SDS011;10400;53.198;6.592;2023-04-20T01:12:40;4.78;;;1.88;;
20482;SDS011;10400;53.198;6.592;2023-04-20T01:15:06;6.30;;;1.75;;
20482;SDS011;10400;53.198;6.592;2023-04-20T01:17:33;4.15;;;1.70;;
20482;SDS011;10400;53.198;6.592;2023-04-20T01:20:00;2.95;;;1.67;;
20482;SDS011;10400;53.198;6.592;2023-04-20T01:22:26;7.22;;;1.92;;
20482;SDS011;10400;53.198;6.592;2023-04-20T01:24:52;4.30;;;1.75;;
20482;SDS011;10400;53.198;6.592;2023-04-20T01:27:18;4.18;;;2.03;;
20482;SDS011;10400;53.198;6.592;2023-04-20T01:29:44;5.55;;;2.30;;
20482;SDS011;10400;53.198;6.592;2023-04-20T01:32:10;5.47;;;1.80;;
20482;SDS011;10400;53.198;6.592;2023-04-20T01:34:36;3.47;;;1.80;;
20482;SDS011;10400;53.198;6.592;2023-04-20T01:37:02;5.40;;;1.83;;
20482;SDS011;10400;53.198;6.592;2023-04-20T01:39:32;7.28;;;2.00;;
20482;SDS011;10400;53.198;6.592;2023-04-20T01:42:02;4.93;;;1.88;;
20482;SDS011;10400;53.198;6.592;2023-04-20T01:44:28;4.72;;;2.08;;
20482;SDS011;10400;53.198;6.592;2023-04-20T01:46:53;4.85;;;1.80;;
20482;SDS011;10400;53.198;6.592;2023-04-20T01:49:19;7.47;;;1.80;;
20482;SDS011;10400;53.198;6.592;2023-04-20T01:51:45;5.88;;;1.88;;
20482;SDS011;10400;53.198;6.592;2023-04-20T01:54:10;6.13;;;1.80;;
20482;SDS011;10400;53.198;6.592;2023-04-20T01:56:36;5.88;;;2.00;;
20482;SDS011;10400;53.198;6.592;2023-04-20T01:59:01;4.78;;;1.77;;
20482;SDS011;10400;53.198;6.592;2023-04-20T02:01:27;5.40;;;1.70;;
20482;SDS011;10400;53.198;6.592;2023-04-20T02:03:53;7.78;;;2.00;;
20482;SDS011;10400;53.198;6.592;2023-04-20T02:06:18;4.22;;;2.10;;
20482;SDS011;10400;53.198;6.592;2023-04-20T02:08:44;6.13;;;2.00;;
20482;SDS011;10400;53.198;6.592;2023-04-20T02:11:10;3.03;;;1.75;;
20482;SDS011;10400;53.198;6.592;2023-04-20T02:13:35;6.03;;;2.13;;
20482;SDS011;10400;53.198;6.592;2023-04-20T02:16:01;6.82;;;2.00;;
20482;SDS011;10400;53.198;6.592;2023-04-20T02:18:27;11.13;;;1.80;;
20482;SDS011;10400;53.198;6.592;2023-04-20T02:20:54;4.82;;;2.03;;
20482;SDS011;10400;53.198;6.592;2023-04-20T02:23:19;6.22;;;2.17;;
20482;SDS011;10400;53.198;6.592;2023-04-20T02:25:45;8.00;;;2.03;;
20482;SDS011;10400;53.198;6.592;2023-04-20T02:28:11;7.80;;;2.00;;
20482;SDS011;10400;53.198;6.592;2023-04-20T02:30:36;8.75;;;2.30;;
20482;SDS011;10400;53.198;6.592;2023-04-20T02:33:02;7.07;;;2.38;;
20482;SDS011;10400;53.198;6.592;2023-04-20T02:35:27;8.07;;;2.40;;
20482;SDS011;10400;53.198;6.592;2023-04-20T02:37:53;8.30;;;2.22;;
20482;SDS011;10400;53.198;6.592;2023-04-20T02:40:19;5.50;;;2.17;;
20482;SDS011;10400;53.198;6.592;2023-04-20T02:42:44;5.97;;;2.10;;
20482;SDS011;10400;53.198;6.592;2023-04-20T02:45:10;8.38;;;2.15;;
20482;SDS011;10400;53.198;6.592;2023-04-20T02:47:36;10.35;;;2.20;;
20482;SDS011;10400;53.198;6.592;2023-04-20T02:50:02;7.43;;;2.33;;
20482;SDS011;10400;53.198;6.592;2023-04-20T02:52:28;5.97;;;2.70;;
20482;SDS011;10400;53.198;6.592;2023-04-20T02:54:54;8.65;;;2.20;;
20482;SDS011;10400;53.198;6.592;2023-04-20T02:57:19;6.45;;;2.15;;
20482;SDS011;10400;53.198;6.592;2023-04-20T02:59:45;10.35;;;2.50;;
20482;SDS011;10400;53.198;6.592;2023-04-20T03:02:10;4.28;;;1.98;;
20482;SDS011;10400;53.198;6.592;2023-04-20T03:04:36;6.03;;;2.00;;
20482;SDS011;10400;53.198;6.592;2023-04-20T03:07:03;3.42;;;1.70;;
20482;SDS011;10400;53.198;6.592;2023-04-20T03:09:28;4.07;;;1.90;;
20482;SDS011;10400;53.198;6.592;2023-04-20T03:11:54;9.35;;;2.00;;
20482;SDS011;10400;53.198;6.592;2023-04-20T03:14:20;8.82;;;2.38;;
20482;SDS011;10400;53.198;6.592;2023-04-20T03:16:45;6.75;;;1.90;;
20482;SDS011;10400;53.198;6.592;2023-04-20T03:19:11;4.85;;;1.90;;
20482;SDS011;10400;53.198;6.592;2023-04-20T03:21:37;4.40;;;1.90;;
20482;SDS011;10400;53.198;6.592;2023-04-20T03:24:03;5.50;;;1.98;;
20482;SDS011;10400;53.198;6.592;2023-04-20T03:26:30;4.28;;;1.92;;
20482;SDS011;10400;53.198;6.592;2023-04-20T03:28:56;6.00;;;2.53;;
20482;SDS011;10400;53.198;6.592;2023-04-20T03:31:22;3.75;;;2.00;;
20482;SDS011;10400;53.198;6.592;2023-04-20T03:33:47;4.05;;;2.00;;
20482;SDS011;10400;53.198;6.592;2023-04-20T03:36:13;3.85;;;2.10;;
20482;SDS011;10400;53.198;6.592;2023-04-20T03:38:39;8.48;;;1.98;;
20482;SDS011;10400;53.198;6.592;2023-04-20T03:41:04;5.32;;;1.90;;
20482;SDS011;10400;53.198;6.592;2023-04-20T03:43:32;5.63;;;2.05;;
20482;SDS011;10400;53.198;6.592;2023-04-20T03:45:58;5.13;;;1.80;;
20482;SDS011;10400;53.198;6.592;2023-04-20T03:48:23;10.15;;;2.28;;
20482;SDS011;10400;53.198;6.592;2023-04-20T03:50:49;8.60;;;2.00;;
20482;SDS011;10400;53.198;6.592;2023-04-20T03:53:15;3.72;;;1.77;;
20482;SDS011;10400;53.198;6.592;2023-04-20T03:55:41;6.00;;;1.80;;
20482;SDS011;10400;53.198;6.592;2023-04-20T03:58:06;7.90;;;1.80;;
20482;SDS011;10400;53.198;6.592;2023-04-20T04:00:33;4.22;;;1.90;;
20482;SDS011;10400;53.198;6.592;2023-04-20T04:02:58;5.60;;;1.92;;
20482;SDS011;10400;53.198;6.592;2023-04-20T04:05:24;6.85;;;2.13;;
20482;SDS011;10400;53.198;6.592;2023-04-20T04:07:50;2.38;;;1.75;;
20482;SDS011;10400;53.198;6.592;2023-04-20T04:10:16;4.63;;;1.73;;
20482;SDS011;10400;53.198;6.592;2023-04-20T04:12:43;3.83;;;1.83;;
20482;SDS011;10400;53.198;6.592;2023-04-20T04:15:09;5.03;;;1.70;;
20482;SDS011;10400;53.198;6.592;2023-04-20T04:17:36;6.13;;;1.63;;
20482;SDS011;10400;53.198;6.592;2023-04-20T04:20:02;8.40;;;2.10;;
20482;SDS011;10400;53.198;6.592;2023-04-20T04:22:28;3.42;;;1.60;;
20482;SDS011;10400;53.198;6.592;2023-04-20T04:24:53;4.55;;;1.80;;
20482;SDS011;10400;53.198;6.592;2023-04-20T04:27:19;4.72;;;1.70;;
20482;SDS011;10400;53.198;6.592;2023-04-20T04:29:46;5.80;;;2.38;;
20482;SDS011;10400;53.198;6.592;2023-04-20T04:32:14;2.67;;;1.92;;
20482;SDS011;10400;53.198;6.592;2023-04-20T04:34:40;4.18;;;1.85;;
20482;SDS011;10400;53.198;6.592;2023-04-20T04:37:08;3.60;;;1.85;;
20482;SDS011;10400;53.198;6.592;2023-04-20T04:39:35;4.53;;;1.63;;
20482;SDS011;10400;53.198;6.592;2023-04-20T04:42:00;7.38;;;1.77;;
20482;SDS011;10400;53.198;6.592;2023-04-20T04:44:27;5.22;;;2.20;;
20482;SDS011;10400;53.198;6.592;2023-04-20T04:46:52;4.72;;;1.83;;
20482;SDS011;10400;53.198;6.592;2023-04-20T04:49:19;7.28;;;2.13;;
20482;SDS011;10400;53.198;6.592;2023-04-20T04:51:45;3.28;;;1.83;;
20482;SDS011;10400;53.198;6.592;2023-04-20T04:54:12;13.65;;;2.42;;
20482;SDS011;10400;53.198;6.592;2023-04-20T04:56:37;4.88;;;2.03;;
20482;SDS011;10400;53.198;6.592;2023-04-20T04:59:03;5.22;;;1.95;;
20482;SDS011;10400;53.198;6.592;2023-04-20T05:01:29;5.82;;;2.33;;
20482;SDS011;10400;53.198;6.592;2023-04-20T05:03:55;7.22;;;2.15;;
20482;SDS011;10400;53.198;6.592;2023-04-20T05:06:20;6.57;;;2.30;;
20482;SDS011;10400;53.198;6.592;2023-04-20T05:08:46;3.40;;;1.88;;
20482;SDS011;10400;53.198;6.592;2023-04-20T05:11:11;3.53;;;1.77;;
20482;SDS011;10400;53.198;6.592;2023-04-20T05:13:37;4.72;;;2.00;;
20482;SDS011;10400;53.198;6.592;2023-04-20T05:16:03;5.70;;;2.30;;
20482;SDS011;10400;53.198;6.592;2023-04-20T05:18:29;5.28;;;1.83;;
20482;SDS011;10400;53.198;6.592;2023-04-20T05:20:54;5.22;;;1.67;;
20482;SDS011;10400;53.198;6.592;2023-04-20T05:23:20;8.23;;;2.05;;
20482;SDS011;10400;53.198;6.592;2023-04-20T05:25:45;7.13;;;1.80;;
20482;SDS011;10400;53.198;6.592;2023-04-20T05:28:11;8.48;;;2.10;;
20482;SDS011;10400;53.198;6.592;2023-04-20T05:30:37;7.25;;;2.47;;
20482;SDS011;10400;53.198;6.592;2023-04-20T05:33:02;3.95;;;1.67;;
20482;SDS011;10400;53.198;6.592;2023-04-20T05:35:28;4.60;;;1.90;;
20482;SDS011;10400;53.198;6.592;2023-04-20T05:37:54;3.05;;;1.92;;
20482;SDS011;10400;53.198;6.592;2023-04-20T05:40:20;8.00;;;1.90;;
20482;SDS011;10400;53.198;6.592;2023-04-20T05:42:46;10.35;;;2.60;;
20482;SDS011;10400;53.198;6.592;2023-04-20T05:45:11;6.18;;;2.03;;
20482;SDS011;10400;53.198;6.592;2023-04-20T05:47:37;6.75;;;1.73;;
20482;SDS011;10400;53.198;6.592;2023-04-20T05:50:03;3.95;;;1.80;;
20482;SDS011;10400;53.198;6.592;2023-04-20T05:52:29;4.35;;;1.65;;
20482;SDS011;10400;53.198;6.592;2023-04-20T05:54:54;8.10;;;1.98;;
20482;SDS011;10400;53.198;6.592;2023-04-20T05:57:20;6.25;;;1.65;;
20482;SDS011;10400;53.198;6.592;2023-04-20T05:59:48;7.07;;;1.95;;
20482;SDS011;10400;53.198;6.592;2023-04-20T06:02:14;5.57;;;2.40;;
20482;SDS011;10400;53.198;6.592;2023-04-20T06:04:40;5.22;;;2.17;;
20482;SDS011;10400;53.198;6.592;2023-04-20T06:07:06;5.85;;;2.00;;
20482;SDS011;10400;53.198;6.592;2023-04-20T06:09:32;3.78;;;1.77;;
20482;SDS011;10400;53.198;6.592;2023-04-20T06:11:57;3.65;;;1.80;;
20482;SDS011;10400;53.198;6.592;2023-04-20T06:14:24;3.55;;;1.85;;
20482;SDS011;10400;53.198;6.592;2023-04-20T06:16:50;4.25;;;1.80;;
20482;SDS011;10400;53.198;6.592;2023-04-20T06:19:15;7.03;;;1.88;;
20482;SDS011;10400;53.198;6.592;2023-04-20T06:21:41;7.22;;;1.98;;
20482;SDS011;10400;53.198;6.592;2023-04-20T06:24:07;6.32;;;1.88;;
20482;SDS011;10400;53.198;6.592;2023-04-20T06:26:33;7.15;;;2.03;;
20482;SDS011;10400;53.198;6.592;2023-04-20T06:28:58;5.20;;;2.17;;
20482;SDS011;10400;53.198;6.592;2023-04-20T06:31:24;6.78;;;2.50;;
20482;SDS011;10400;53.198;6.592;2023-04-20T06:33:50;5.30;;;2.03;;
20482;SDS011;10400;53.198;6.592;2023-04-20T06:36:16;8.18;;;2.33;;
20482;SDS011;10400;53.198;6.592;2023-04-20T06:38:41;5.05;;;2.17;;
20482;SDS011;10400;53.198;6.592;2023-04-20T06:41:07;6.60;;;2.40;;
20482;SDS011;10400;53.198;6.592;2023-04-20T06:43:32;4.47;;;2.20;;
20482;SDS011;10400;53.198;6.592;2023-04-20T06:45:58;8.73;;;2.35;;
20482;SDS011;10400;53.198;6.592;2023-04-20T06:48:24;3.05;;;2.00;;
20482;SDS011;10400;53.198;6.592;2023-04-20T06:50:49;6.40;;;2.20;;
20482;SDS011;10400;53.198;6.592;2023-04-20T06:53:15;5.32;;;2.30;;
20482;SDS011;10400;53.198;6.592;2023-04-20T06:55:41;6.28;;;2.83;;
20482;SDS011;10400;53.198;6.592;2023-04-20T06:58:07;4.63;;;2.17;;
20482;SDS011;10400;53.198;6.592;2023-04-20T07:00:33;5.18;;;2.13;;
20482;SDS011;10400;53.198;6.592;2023-04-20T07:02:58;6.93;;;2.17;;
20482;SDS011;10400;53.198;6.592;2023-04-20T07:05:24;5.68;;;2.55;;
20482;SDS011;10400;53.198;6.592;2023-04-20T07:07:52;6.53;;;2.60;;
20482;SDS011;10400;53.198;6.592;2023-04-20T07:10:18;3.95;;;2.22;;
20482;SDS011;10400;53.198;6.592;2023-04-20T07:12:44;6.28;;;2.22;;
20482;SDS011;10400;53.198;6.592;2023-04-20T07:15:10;5.88;;;2.70;;
20482;SDS011;10400;53.198;6.592;2023-04-20T07:17:36;7.47;;;2.60;;
20482;SDS011;10400;53.198;6.592;2023-04-20T07:20:02;4.10;;;2.47;;
20482;SDS011;10400;53.198;6.592;2023-04-20T07:22:34;5.03;;;2.40;;
20482;SDS011;10400;53.198;6.592;2023-04-20T07:25:01;8.00;;;2.60;;
20482;SDS011;10400;53.198;6.592;2023-04-20T07:27:27;6.88;;;2.78;;
20482;SDS011;10400;53.198;6.592;2023-04-20T07:29:54;4.20;;;2.92;;
20482;SDS011;10400;53.198;6.592;2023-04-20T07:32:21;8.60;;;2.50;;
20482;SDS011;10400;53.198;6.592;2023-04-20T07:34:46;5.88;;;2.85;;
20482;SDS011;10400;53.198;6.592;2023-04-20T07:37:12;6.50;;;2.72;;
20482;SDS011;10400;53.198;6.592;2023-04-20T07:39:37;6.63;;;3.03;;
20482;SDS011;10400;53.198;6.592;2023-04-20T07:42:03;8.82;;;2.90;;
20482;SDS011;10400;53.198;6.592;2023-04-20T07:44:29;8.20;;;3.42;;
20482;SDS011;10400;53.198;6.592;2023-04-20T07:46:55;13.20;;;2.80;;
20482;SDS011;10400;53.198;6.592;2023-04-20T07:49:21;4.30;;;2.75;;
20482;SDS011;10400;53.198;6.592;2023-04-20T07:51:48;6.93;;;3.28;;
20482;SDS011;10400;53.198;6.592;2023-04-20T07:54:13;4.78;;;2.80;;
20482;SDS011;10400;53.198;6.592;2023-04-20T07:56:39;5.13;;;3.00;;
20482;SDS011;10400;53.198;6.592;2023-04-20T07:59:05;6.10;;;2.90;;
20482;SDS011;10400;53.198;6.592;2023-04-20T08:01:31;7.53;;;3.10;;
20482;SDS011;10400;53.198;6.592;2023-04-20T08:03:56;6.20;;;2.83;;
20482;SDS011;10400;53.198;6.592;2023-04-20T08:06:22;5.28;;;2.80;;
20482;SDS011;10400;53.198;6.592;2023-04-20T08:08:47;3.22;;;2.45;;
20482;SDS011;10400;53.198;6.592;2023-04-20T08:11:13;5.78;;;2.92;;
20482;SDS011;10400;53.198;6.592;2023-04-20T08:13:39;7.15;;;3.05;;
20482;SDS011;10400;53.198;6.592;2023-04-20T08:16:05;5.68;;;3.00;;
20482;SDS011;10400;53.198;6.592;2023-04-20T08:18:31;6.88;;;3.08;;
20482;SDS011;10400;53.198;6.592;2023-04-20T08:20:56;4.57;;;2.97;;
20482;SDS011;10400;53.198;6.592;2023-04-20T08:23:22;5.07;;;2.92;;
20482;SDS011;10400;53.198;6.592;2023-04-20T08:25:55;4.30;;;2.88;;
20482;SDS011;10400;53.198;6.592;2023-04-20T08:28:21;7.07;;;3.50;;
20482;SDS011;10400;53.198;6.592;2023-04-20T08:30:48;9.65;;;3.25;;
20482;SDS011;10400;53.198;6.592;2023-04-20T08:33:14;6.38;;;3.28;;
20482;SDS011;10400;53.198;6.592;2023-04-20T08:35:39;6.97;;;3.22;;
20482;SDS011;10400;53.198;6.592;2023-04-20T08:38:05;6.90;;;3.15;;
20482;SDS011;10400;53.198;6.592;2023-04-20T08:40:31;4.72;;;3.17;;
20482;SDS011;10400;53.198;6.592;2023-04-20T08:42:57;7.68;;;3.08;;
20482;SDS011;10400;53.198;6.592;2023-04-20T08:45:26;8.57;;;3.50;;
20482;SDS011;10400;53.198;6.592;2023-04-20T08:47:52;6.55;;;3.40;;
20482;SDS011;10400;53.198;6.592;2023-04-20T08:50:18;7.95;;;3.47;;
20482;SDS011;10400;53.198;6.592;2023-04-20T08:52:45;4.85;;;3.38;;
20482;SDS011;10400;53.198;6.592;2023-04-20T08:55:14;5.60;;;3.67;;
20482;SDS011;10400;53.198;6.592;2023-04-20T08:57:43;6.40;;;4.20;;
20482;SDS011;10400;53.198;6.592;2023-04-20T09:00:11;8.88;;;3.83;;
20482;SDS011;10400;53.198;6.592;2023-04-20T09:02:51;8.32;;;3.35;;
20482;SDS011;10400;53.198;6.592;2023-04-20T09:05:25;5.47;;;3.30;;
20482;SDS011;10400;53.198;6.592;2023-04-20T09:07:52;6.80;;;3.72;;
20482;SDS011;10400;53.198;6.592;2023-04-20T09:10:19;5.70;;;3.60;;
20482;SDS011;10400;53.198;6.592;2023-04-20T09:12:48;6.18;;;4.05;;
20482;SDS011;10400;53.198;6.592;2023-04-20T09:15:24;10.02;;;3.88;;
20482;SDS011;10400;53.198;6.592;2023-04-20T09:17:53;11.38;;;4.18;;
20482;SDS011;10400;53.198;6.592;2023-04-20T09:20:26;11.13;;;4.05;;
20482;SDS011;10400;53.198;6.592;2023-04-20T09:22:56;6.57;;;3.80;;
20482;SDS011;10400;53.198;6.592;2023-04-20T09:25:22;5.47;;;3.65;;
20482;SDS011;10400;53.198;6.592;2023-04-20T09:27:59;9.82;;;4.47;;
20482;SDS011;10400;53.198;6.592;2023-04-20T09:30:35;8.80;;;3.85;;
20482;SDS011;10400;53.198;6.592;2023-04-20T09:33:06;10.35;;;3.97;;
20482;SDS011;10400;53.198;6.592;2023-04-20T09:35:32;9.95;;;4.50;;
20482;SDS011;10400;53.198;6.592;2023-04-20T09:37:59;12.68;;;4.60;;
20482;SDS011;10400;53.198;6.592;2023-04-20T09:40:24;11.88;;;3.88;;
20482;SDS011;10400;53.198;6.592;2023-04-20T09:42:54;9.63;;;3.72;;
20482;SDS011;10400;53.198;6.592;2023-04-20T09:45:24;5.78;;;3.65;;
20482;SDS011;10400;53.198;6.592;2023-04-20T09:47:51;5.55;;;3.28;;
20482;SDS011;10400;53.198;6.592;2023-04-20T09:50:17;8.45;;;3.75;;
20482;SDS011;10400;53.198;6.592;2023-04-20T09:52:45;8.00;;;3.75;;
20482;SDS011;10400;53.198;6.592;2023-04-20T09:55:13;10.40;;;4.20;;
20482;SDS011;10400;53.198;6.592;2023-04-20T09:57:39;7.32;;;3.10;;
20482;SDS011;10400;53.198;6.592;2023-04-20T10:00:05;6.03;;;3.67;;
20482;SDS011;10400;53.198;6.592;2023-04-20T10:02:34;6.15;;;3.85;;
20482;SDS011;10400;53.198;6.592;2023-04-20T10:05:01;10.93;;;4.03;;
20482;SDS011;10400;53.198;6.592;2023-04-20T10:07:28;5.10;;;3.40;;
20482;SDS011;10400;53.198;6.592;2023-04-20T10:10:03;7.10;;;3.80;;
20482;SDS011;10400;53.198;6.592;2023-04-20T10:12:30;8.95;;;4.05;;
20482;SDS011;10400;53.198;6.592;2023-04-20T10:14:55;6.72;;;4.70;;
20482;SDS011;10400;53.198;6.592;2023-04-20T10:17:31;8.10;;;4.15;;
20482;SDS011;10400;53.198;6.592;2023-04-20T10:19:58;11.25;;;4.10;;
20482;SDS011;10400;53.198;6.592;2023-04-20T10:22:29;9.77;;;3.97;;
20482;SDS011;10400;53.198;6.592;2023-04-20T10:24:59;8.98;;;4.57;;
20482;SDS011;10400;53.198;6.592;2023-04-20T10:27:50;7.53;;;3.83;;
20482;SDS011;10400;53.198;6.592;2023-04-20T10:30:30;7.38;;;4.05;;
20482;SDS011;10400;53.198;6.592;2023-04-20T10:33:07;8.18;;;4.28;;
20482;SDS011;10400;53.198;6.592;2023-04-20T10:35:41;7.20;;;4.40;;
20482;SDS011;10400;53.198;6.592;2023-04-20T10:38:12;8.77;;;4.57;;
20482;SDS011;10400;53.198;6.592;2023-04-20T10:40:37;13.60;;;6.25;;
20482;SDS011;10400;53.198;6.592;2023-04-20T10:43:03;6.80;;;4.40;;
20482;SDS011;10400;53.198;6.592;2023-04-20T10:45:33;6.82;;;4.10;;
20482;SDS011;10400;53.198;6.592;2023-04-20T10:48:09;9.18;;;4.82;;
20482;SDS011;10400;53.198;6.592;2023-04-20T10:50:35;8.85;;;4.13;;
20482;SDS011;10400;53.198;6.592;2023-04-20T10:53:02;7.60;;;4.30;;
20482;SDS011;10400;53.198;6.592;2023-04-20T10:55:31;8.43;;;4.57;;
20482;SDS011;10400;53.198;6.592;2023-04-20T10:57:58;8.27;;;4.07;;
20482;SDS011;10400;53.198;6.592;2023-04-20T11:00:25;8.52;;;4.63;;
20482;SDS011;10400;53.198;6.592;2023-04-20T11:02:52;7.35;;;4.32;;
20482;SDS011;10400;53.198;6.592;2023-04-20T11:05:21;6.30;;;4.43;;
20482;SDS011;10400;53.198;6.592;2023-04-20T11:10:22;7.38;;;4.57;;
20482;SDS011;10400;53.198;6.592;2023-04-20T11:12:49;7.05;;;4.85;;
20482;SDS011;10400;53.198;6.592;2023-04-20T11:15:16;8.02;;;4.70;;
20482;SDS011;10400;53.198;6.592;2023-04-20T11:17:42;11.00;;;5.63;;
20482;SDS011;10400;53.198;6.592;2023-04-20T11:20:11;13.00;;;5.85;;
20482;SDS011;10400;53.198;6.592;2023-04-20T11:22:41;9.52;;;5.38;;
20482;SDS011;10400;53.198;6.592;2023-04-20T11:25:08;9.55;;;4.95;;
20482;SDS011;10400;53.198;6.592;2023-04-20T11:27:35;9.93;;;5.00;;
20482;SDS011;10400;53.198;6.592;2023-04-20T11:30:03;7.43;;;4.85;;
20482;SDS011;10400;53.198;6.592;2023-04-20T11:32:32;8.77;;;4.93;;
20482;SDS011;10400;53.198;6.592;2023-04-20T11:37:26;8.45;;;5.18;;
20482;SDS011;10400;53.198;6.592;2023-04-20T11:40:05;10.57;;;5.57;;
20482;SDS011;10400;53.198;6.592;2023-04-20T11:42:34;11.65;;;5.65;;
20482;SDS011;10400;53.198;6.592;2023-04-20T11:45:00;10.60;;;5.40;;
20482;SDS011;10400;53.198;6.592;2023-04-20T11:47:25;11.00;;;5.95;;
20482;SDS011;10400;53.198;6.592;2023-04-20T11:49:51;11.60;;;5.90;;
20482;SDS011;10400;53.198;6.592;2023-04-20T11:52:17;10.43;;;6.22;;
20482;SDS011;10400;53.198;6.592;2023-04-20T11:54:43;11.30;;;6.15;;
20482;SDS011;10400;53.198;6.592;2023-04-20T11:57:08;11.35;;;6.43;;
20482;SDS011;10400;53.198;6.592;2023-04-20T11:59:34;12.07;;;6.00;;
20482;SDS011;10400;53.198;6.592;2023-04-20T12:02:00;10.95;;;6.38;;
20482;SDS011;10400;53.198;6.592;2023-04-20T12:04:29;8.85;;;6.03;;
20482;SDS011;10400;53.198;6.592;2023-04-20T12:06:56;13.52;;;6.07;;
20482;SDS011;10400;53.198;6.592;2023-04-20T12:09:23;10.57;;;6.38;;
20482;SDS011;10400;53.198;6.592;2023-04-20T12:11:49;10.18;;;6.75;;
20482;SDS011;10400;53.198;6.592;2023-04-20T12:14:15;8.30;;;6.28;;
20482;SDS011;10400;53.198;6.592;2023-04-20T12:16:41;14.25;;;6.93;;
20482;SDS011;10400;53.198;6.592;2023-04-20T12:19:06;14.60;;;7.68;;
20482;SDS011;10400;53.198;6.592;2023-04-20T12:21:33;15.05;;;7.78;;
20482;SDS011;10400;53.198;6.592;2023-04-20T12:23:59;12.15;;;7.78;;
20482;SDS011;10400;53.198;6.592;2023-04-20T12:26:25;10.18;;;7.20;;
20482;SDS011;10400;53.198;6.592;2023-04-20T12:28:50;11.00;;;6.70;;
20482;SDS011;10400;53.198;6.592;2023-04-20T12:31:16;11.18;;;6.65;;
20482;SDS011;10400;53.198;6.592;2023-04-20T12:33:42;13.20;;;7.25;;
20482;SDS011;10400;53.198;6.592;2023-04-20T12:36:08;12.52;;;7.20;;
20482;SDS011;10400;53.198;6.592;2023-04-20T12:38:34;11.30;;;6.85;;
20482;SDS011;10400;53.198;6.592;2023-04-20T12:41:00;11.48;;;7.18;;
20482;SDS011;10400;53.198;6.592;2023-04-20T12:43:28;12.48;;;6.68;;
20482;SDS011;10400;53.198;6.592;2023-04-20T12:45:54;9.18;;;6.30;;
20482;SDS011;10400;53.198;6.592;2023-04-20T12:48:20;9.82;;;6.05;;
20482;SDS011;10400;53.198;6.592;2023-04-20T12:50:46;10.27;;;6.32;;
20482;SDS011;10400;53.198;6.592;2023-04-20T12:53:11;11.15;;;6.25;;
20482;SDS011;10400;53.198;6.592;2023-04-20T12:55:37;8.20;;;5.95;;
20482;SDS011;10400;53.198;6.592;2023-04-20T12:58:02;10.43;;;6.13;;
20482;SDS011;10400;53.198;6.592;2023-04-20T13:00:28;8.45;;;5.93;;
20482;SDS011;10400;53.198;6.592;2023-04-20T13:02:54;8.77;;;5.97;;
20482;SDS011;10400;53.198;6.592;2023-04-20T13:05:19;9.20;;;5.88;;
20482;SDS011;10400;53.198;6.592;2023-04-20T13:07:45;8.07;;;5.70;;
20482;SDS011;10400;53.198;6.592;2023-04-20T13:10:11;8.60;;;5.43;;
20482;SDS011;10400;53.198;6.592;2023-04-20T13:12:37;9.00;;;5.93;;
20482;SDS011;10400;53.198;6.592;2023-04-20T13:15:02;10.40;;;5.57;;
20482;SDS011;10400;53.198;6.592;2023-04-20T13:17:33;6.30;;;4.90;;
20482;SDS011;10400;53.198;6.592;2023-04-20T13:19:58;10.27;;;5.75;;
20482;SDS011;10400;53.198;6.592;2023-04-20T13:22:24;10.77;;;6.40;;
20482;SDS011;10400;53.198;6.592;2023-04-20T13:24:50;8.82;;;5.53;;
20482;SDS011;10400;53.198;6.592;2023-04-20T13:27:15;8.18;;;6.03;;
20482;SDS011;10400;53.198;6.592;2023-04-20T13:29:41;9.48;;;5.55;;
20482;SDS011;10400;53.198;6.592;2023-04-20T13:32:07;11.07;;;5.63;;
20482;SDS011;10400;53.198;6.592;2023-04-20T13:34:33;13.75;;;6.28;;
20482;SDS011;10400;53.198;6.592;2023-04-20T13:36:59;9.82;;;6.05;;
20482;SDS011;10400;53.198;6.592;2023-04-20T13:39:25;11.43;;;6.28;;
20482;SDS011;10400;53.198;6.592;2023-04-20T13:41:51;9.65;;;6.07;;
20482;SDS011;10400;53.198;6.592;2023-04-20T13:44:17;11.82;;;6.00;;
20482;SDS011;10400;53.198;6.592;2023-04-20T13:46:44;8.32;;;6.03;;
20482;SDS011;10400;53.198;6.592;2023-04-20T13:49:11;11.65;;;6.05;;
20482;SDS011;10400;53.198;6.592;2023-04-20T13:51:37;9.52;;;5.93;;
20482;SDS011;10400;53.198;6.592;2023-04-20T13:54:04;9.73;;;6.18;;
20482;SDS011;10400;53.198;6.592;2023-04-20T13:56:30;10.73;;;6.07;;
20482;SDS011;10400;53.198;6.592;2023-04-20T13:58:57;11.73;;;5.72;;
20482;SDS011;10400;53.198;6.592;2023-04-20T14:01:22;7.40;;;5.45;;
20482;SDS011;10400;53.198;6.592;2023-04-20T14:03:49;9.82;;;6.72;;
20482;SDS011;10400;53.198;6.592;2023-04-20T14:06:16;12.32;;;6.20;;
20482;SDS011;10400;53.198;6.592;2023-04-20T14:08:42;12.65;;;6.22;;
20482;SDS011;10400;53.198;6.592;2023-04-20T14:11:08;10.13;;;6.43;;
20482;SDS011;10400;53.198;6.592;2023-04-20T14:13:33;10.35;;;6.50;;
20482;SDS011;10400;53.198;6.592;2023-04-20T14:15:59;9.00;;;6.07;;
20482;SDS011;10400;53.198;6.592;2023-04-20T14:18:25;9.23;;;6.30;;
20482;SDS011;10400;53.198;6.592;2023-04-20T14:20:50;8.80;;;6.25;;
20482;SDS011;10400;53.198;6.592;2023-04-20T14:23:17;8.43;;;5.85;;
20482;SDS011;10400;53.198;6.592;2023-04-20T14:25:43;9.07;;;5.47;;
20482;SDS011;10400;53.198;6.592;2023-04-20T14:28:08;8.43;;;6.03;;
20482;SDS011;10400;53.198;6.592;2023-04-20T14:30:34;9.65;;;6.05;;
20482;SDS011;10400;53.198;6.592;2023-04-20T14:33:00;8.48;;;5.97;;
20482;SDS011;10400;53.198;6.592;2023-04-20T14:35:26;9.88;;;6.15;;
20482;SDS011;10400;53.198;6.592;2023-04-20T14:37:52;8.20;;;5.85;;
20482;SDS011;10400;53.198;6.592;2023-04-20T14:40:18;9.02;;;6.10;;
20482;SDS011;10400;53.198;6.592;2023-04-20T14:42:45;10.77;;;6.07;;
20482;SDS011;10400;53.198;6.592;2023-04-20T14:45:11;9.55;;;6.07;;
20482;SDS011;10400;53.198;6.592;2023-04-20T14:47:37;11.52;;;6.18;;